createdAt,value
2018-09-11T00:00:01.348Z,19.54
2018-09-11T00:02:30.755Z,19.53
2018-09-11T00:05:00.265Z,19.49
2018-09-11T00:07:30.065Z,19.47
2018-09-11T00:09:59.637Z,19.35
2018-09-11T00:12:29.253Z,19.30
2018-09-11T00:14:58.789Z,19.27
2018-09-11T00:17:28.262Z,19.15
2018-09-11T00:19:57.898Z,19.22
2018-09-11T00:22:27.407Z,19.12
2018-09-11T00:24:57.367Z,19.07
2018-09-11T00:27:27.144Z,19.02
2018-09-11T00:29:56.702Z,18.99
2018-09-11T00:32:27.061Z,19.00
2018-09-11T00:34:56.708Z,19.05
2018-09-11T00:37:26.514Z,19.03
2018-09-11T00:39:56.378Z,19.04
2018-09-11T00:42:25.992Z,19.01
2018-09-11T00:44:55.749Z,18.99
2018-09-11T00:47:25.184Z,19.02
2018-09-11T00:49:55.049Z,19.00
2018-09-11T00:52:24.799Z,19.00
2018-09-11T00:54:55.507Z,19.05
2018-09-11T00:57:24.970Z,19.00
2018-09-11T00:59:54.701Z,19.03
2018-09-11T01:02:24.272Z,19.02
2018-09-11T01:04:54.019Z,18.93
2018-09-11T01:07:23.689Z,19.00
2018-09-11T01:09:53.356Z,18.95
2018-09-11T01:12:22.852Z,18.88
2018-09-11T01:14:52.430Z,18.91
2018-09-11T01:17:22.250Z,18.84
2018-09-11T01:19:51.862Z,18.67
2018-09-11T01:22:21.342Z,18.73
2018-09-11T01:24:51.014Z,18.68
2018-09-11T01:27:20.786Z,18.53
2018-09-11T01:29:50.385Z,18.48
2018-09-11T01:32:20.367Z,18.38
2018-09-11T01:34:50.165Z,18.23
2018-09-11T01:37:19.924Z,18.14
2018-09-11T01:39:49.780Z,18.03
2018-09-11T01:42:19.597Z,17.94
2018-09-11T01:44:49.176Z,17.84
2018-09-11T01:47:18.782Z,17.88
2018-09-11T01:49:48.696Z,17.78
2018-09-11T01:52:18.610Z,17.72
2018-09-11T01:54:48.281Z,17.79
2018-09-11T01:57:18.436Z,17.68
2018-09-11T01:59:48.133Z,17.66
2018-09-11T02:02:17.819Z,17.74
2018-09-11T02:04:47.652Z,17.71
2018-09-11T02:07:17.685Z,17.71
2018-09-11T02:09:47.685Z,17.81
2018-09-11T02:12:17.581Z,17.82
2018-09-11T02:14:47.518Z,17.85
2018-09-11T02:17:17.375Z,17.83
2018-09-11T02:19:47.127Z,17.81
2018-09-11T02:22:17.021Z,17.85
2018-09-11T02:24:46.592Z,17.91
2018-09-11T02:27:16.298Z,17.90
2018-09-11T02:29:45.891Z,17.95
2018-09-11T02:32:15.520Z,18.03
2018-09-11T02:34:45.199Z,18.05
2018-09-11T02:37:14.868Z,18.02
2018-09-11T02:39:44.380Z,17.90
2018-09-11T02:42:14.022Z,17.91
2018-09-11T02:44:43.715Z,17.89
2018-09-11T02:47:13.482Z,17.84
2018-09-11T02:49:42.985Z,17.74
2018-09-11T02:52:12.794Z,17.63
2018-09-11T02:54:42.751Z,17.53
2018-09-11T02:57:12.245Z,17.45
2018-09-11T02:59:41.922Z,17.37
2018-09-11T03:02:11.405Z,17.34
2018-09-11T03:04:41.209Z,17.27
2018-09-11T03:07:10.826Z,17.15
2018-09-11T03:09:40.390Z,17.10
2018-09-11T03:12:09.854Z,17.00
2018-09-11T03:14:39.557Z,17.08
2018-09-11T03:17:09.377Z,17.13
2018-09-11T03:19:39.127Z,16.95
2018-09-11T03:22:08.859Z,16.88
2018-09-11T03:24:38.498Z,16.74
2018-09-11T03:27:08.035Z,16.63
2018-09-11T03:29:37.673Z,16.49
2018-09-11T03:32:07.441Z,16.40
2018-09-11T03:34:37.043Z,16.61
2018-09-11T03:37:06.945Z,16.55
2018-09-11T03:39:36.622Z,16.55
2018-09-11T03:42:06.407Z,16.61
2018-09-11T03:44:35.864Z,16.75
2018-09-11T03:47:05.714Z,16.84
2018-09-11T03:49:35.278Z,16.85
2018-09-11T03:52:05.607Z,16.87
2018-09-11T03:54:35.485Z,16.88
2018-09-11T03:57:05.236Z,16.90
2018-09-11T03:59:34.741Z,16.90
2018-09-11T04:02:04.450Z,16.80
2018-09-11T04:04:33.957Z,16.90
2018-09-11T04:07:03.657Z,16.74
2018-09-11T04:09:33.207Z,16.64
2018-09-11T04:12:03.398Z,16.69
2018-09-11T04:14:33.016Z,16.67
2018-09-11T04:17:02.710Z,16.77
2018-09-11T04:19:32.413Z,16.72
2018-09-11T04:22:02.234Z,16.75
2018-09-11T04:24:31.888Z,16.71
2018-09-11T04:27:01.800Z,16.66
2018-09-11T04:29:31.566Z,16.62
2018-09-11T04:32:01.386Z,16.60
2018-09-11T04:34:31.317Z,16.63
2018-09-11T04:37:01.191Z,16.57
2018-09-11T04:39:30.994Z,16.52
2018-09-11T04:42:00.754Z,16.39
2018-09-11T04:44:30.330Z,16.43
2018-09-11T04:47:00.292Z,16.42
2018-09-11T04:49:30.038Z,16.46
2018-09-11T04:51:59.673Z,16.52
2018-09-11T04:54:29.513Z,16.72
2018-09-11T04:56:59.561Z,16.81
2018-09-11T04:59:29.167Z,17.17
2018-09-11T05:01:58.725Z,17.84
2018-09-11T05:04:28.492Z,18.44
2018-09-11T05:06:58.168Z,19.01
2018-09-11T05:09:27.800Z,19.95
2018-09-11T05:11:57.446Z,20.49
2018-09-11T05:14:27.310Z,20.68
2018-09-11T05:16:57.076Z,21.43
2018-09-11T05:19:26.853Z,21.97
2018-09-11T05:21:56.577Z,22.20
2018-09-11T05:24:26.317Z,22.52
2018-09-11T05:29:24.366Z,23.12
2018-09-11T05:31:54.110Z,23.09
2018-09-11T05:34:23.685Z,23.05
2018-09-11T05:36:53.370Z,23.88
2018-09-11T05:39:22.956Z,23.76
2018-09-11T05:41:52.493Z,24.15
2018-09-11T05:44:22.207Z,24.10
2018-09-11T05:46:51.674Z,24.53
2018-09-11T05:49:22.059Z,25.18
2018-09-11T05:51:51.625Z,25.62
2018-09-11T05:54:21.616Z,26.29
2018-09-11T05:56:51.168Z,25.96
2018-09-11T05:59:20.800Z,26.55
2018-09-11T06:01:50.640Z,26.54
2018-09-11T06:04:20.355Z,26.43
2018-09-11T06:06:50.019Z,27.46
2018-09-11T06:09:20.588Z,26.92
2018-09-11T06:11:50.047Z,27.36
2018-09-11T06:14:19.701Z,27.71
2018-09-11T06:16:49.271Z,27.73
2018-09-11T06:19:19.085Z,28.55
2018-09-11T06:21:48.883Z,28.96
2018-09-11T06:24:18.532Z,29.05
2018-09-11T06:26:48.193Z,28.53
2018-09-11T06:29:17.986Z,30.22
2018-09-11T06:31:47.702Z,29.83
2018-09-11T06:34:17.437Z,29.50
2018-09-11T06:36:47.166Z,29.30
2018-09-11T06:39:16.707Z,28.68
2018-09-11T06:41:46.393Z,29.31
2018-09-11T06:44:16.096Z,29.18
2018-09-11T06:46:48.011Z,30.04
2018-09-11T06:49:17.936Z,29.77
2018-09-11T06:51:48.421Z,29.96
2018-09-11T06:54:18.364Z,29.44
2018-09-11T06:56:47.970Z,30.47
2018-09-11T06:59:17.714Z,29.29
2018-09-11T07:01:47.509Z,30.26
2018-09-11T07:04:17.260Z,29.87
2018-09-11T07:06:46.959Z,29.81
2018-09-11T07:09:16.620Z,29.99
2018-09-11T07:11:46.467Z,29.84
2018-09-11T07:14:16.223Z,30.29
2018-09-11T07:16:46.063Z,30.63
2018-09-11T07:19:15.820Z,30.92
2018-09-11T07:21:45.642Z,30.65
2018-09-11T07:24:15.426Z,30.51
2018-09-11T07:26:45.134Z,30.73
2018-09-11T07:29:15.193Z,29.74
2018-09-11T07:31:45.325Z,29.85
2018-09-11T07:34:15.067Z,29.68
2018-09-11T07:36:44.844Z,30.00
2018-09-11T07:39:14.494Z,29.81
2018-09-11T07:41:44.867Z,31.03
2018-09-11T07:44:14.802Z,30.75
2018-09-11T07:46:44.511Z,31.97
2018-09-11T07:49:14.030Z,32.05
2018-09-11T07:51:43.730Z,31.87
2018-09-11T07:54:13.416Z,31.84
2018-09-11T07:56:43.201Z,32.40
2018-09-11T07:59:12.754Z,32.02
2018-09-11T08:01:42.524Z,32.74
2018-09-11T08:04:42.898Z,31.63
2018-09-11T08:07:12.641Z,30.86
2018-09-11T08:09:42.235Z,30.31
2018-09-11T08:12:11.879Z,30.86
2018-09-11T08:14:41.647Z,31.62
2018-09-11T08:17:11.392Z,32.37
2018-09-11T08:19:40.914Z,32.36
2018-09-11T08:22:10.646Z,32.02
2018-09-11T08:24:40.476Z,30.64
2018-09-11T08:27:09.941Z,29.86
2018-09-11T08:29:39.734Z,29.50
2018-09-11T08:32:09.609Z,29.77
2018-09-11T08:34:39.109Z,30.82
2018-09-11T08:37:08.604Z,32.58
2018-09-11T08:39:38.097Z,33.32
2018-09-11T08:42:07.821Z,33.29
2018-09-11T08:44:37.581Z,32.14
2018-09-11T08:47:08.389Z,32.41
2018-09-11T08:49:38.011Z,33.12
2018-09-11T08:52:08.217Z,33.02
2018-09-11T08:54:37.877Z,32.78
2018-09-11T08:57:07.614Z,32.22
2018-09-11T08:59:37.084Z,31.20
2018-09-11T09:02:07.123Z,31.58
2018-09-11T09:04:37.018Z,31.74
2018-09-11T09:07:06.819Z,31.30
2018-09-11T09:09:36.777Z,30.91
2018-09-11T09:12:06.539Z,31.01
2018-09-11T09:14:36.289Z,31.54
2018-09-11T09:17:06.268Z,31.18
2018-09-11T09:19:36.028Z,31.56
2018-09-11T09:22:05.818Z,31.96
2018-09-11T09:24:35.729Z,33.15
2018-09-11T09:27:05.858Z,33.01
2018-09-11T09:29:35.551Z,33.07
2018-09-11T09:32:05.094Z,32.24
2018-09-11T09:34:34.706Z,33.09
2018-09-11T09:37:04.438Z,32.28
2018-09-11T09:39:34.921Z,31.18
2018-09-11T09:42:05.277Z,30.83
2018-09-11T09:44:34.797Z,30.25
2018-09-11T09:47:04.660Z,30.54
2018-09-11T09:49:34.481Z,30.82
2018-09-11T09:52:04.246Z,30.43
2018-09-11T09:54:40.489Z,30.72
2018-09-11T09:57:10.133Z,30.95
2018-09-11T09:59:39.875Z,31.17
2018-09-11T10:02:14.427Z,31.57
2018-09-11T10:04:44.090Z,31.13
2018-09-11T10:07:13.821Z,30.53
2018-09-11T10:09:43.687Z,30.69
2018-09-11T10:12:13.319Z,31.32
2018-09-11T10:14:43.232Z,30.82
2018-09-11T10:17:13.014Z,31.21
2018-09-11T10:19:42.589Z,31.91
2018-09-11T10:22:12.166Z,31.85
2018-09-11T10:24:41.641Z,32.67
2018-09-11T10:27:11.821Z,33.02
2018-09-11T10:29:41.534Z,32.81
2018-09-11T10:32:11.140Z,32.18
2018-09-11T10:34:40.702Z,31.49
2018-09-11T10:37:10.498Z,31.35
2018-09-11T10:39:40.417Z,31.31
2018-09-11T10:42:09.897Z,31.59
2018-09-11T10:44:40.310Z,32.38
2018-09-11T10:47:10.147Z,33.57
2018-09-11T10:49:40.297Z,33.31
2018-09-11T10:52:10.443Z,34.20
2018-09-11T10:54:40.423Z,34.11
2018-09-11T10:57:10.146Z,34.72
2018-09-11T10:59:39.550Z,34.59
2018-09-11T11:02:09.230Z,34.58
2018-09-11T11:04:39.463Z,34.59
2018-09-11T11:07:09.081Z,33.24
2018-09-11T11:09:38.829Z,32.42
2018-09-11T11:12:08.390Z,31.89
2018-09-11T11:14:37.976Z,31.53
2018-09-11T11:17:07.654Z,31.05
2018-09-11T11:19:37.354Z,31.41
2018-09-11T11:22:06.980Z,30.37
2018-09-11T11:24:36.731Z,30.13
2018-09-11T11:27:06.445Z,30.36
2018-09-11T11:29:35.934Z,30.17
2018-09-11T11:32:05.551Z,30.25
2018-09-11T11:34:35.124Z,30.44
2018-09-11T11:37:04.759Z,30.70
2018-09-11T11:39:34.794Z,30.56
2018-09-11T11:42:04.387Z,30.60
2018-09-11T11:44:34.255Z,30.14
2018-09-11T11:47:04.057Z,29.79
2018-09-11T11:49:33.712Z,29.56
2018-09-11T11:52:03.511Z,29.78
2018-09-11T11:54:33.544Z,29.93
2018-09-11T11:57:03.259Z,30.16
2018-09-11T11:59:33.081Z,29.97
2018-09-11T12:02:02.741Z,30.22
2018-09-11T12:04:32.297Z,29.81
2018-09-11T12:07:01.949Z,29.98
2018-09-11T12:09:31.698Z,29.69
2018-09-11T12:12:01.248Z,29.60
2018-09-11T12:14:30.687Z,29.90
2018-09-11T12:17:00.448Z,29.87
2018-09-11T12:19:30.196Z,29.57
2018-09-11T12:21:59.820Z,29.51
2018-09-11T12:24:29.507Z,29.25
2018-09-11T12:30:20.343Z,28.48
2018-09-11T12:32:50.044Z,28.56
2018-09-11T12:35:19.881Z,28.77
2018-09-11T12:37:49.666Z,29.13
2018-09-11T12:40:19.288Z,29.24
2018-09-11T12:42:48.893Z,29.60
2018-09-11T12:45:18.813Z,29.41
2018-09-11T12:47:48.707Z,29.20
2018-09-11T12:50:18.141Z,29.46
2018-09-11T12:52:47.561Z,28.95
2018-09-11T12:55:17.343Z,28.94
2018-09-11T12:57:46.826Z,28.81
2018-09-11T13:00:16.497Z,28.85
2018-09-11T13:02:46.108Z,28.93
2018-09-11T13:05:15.608Z,28.40
2018-09-11T13:07:45.772Z,29.05
2018-09-11T13:10:15.411Z,28.99
2018-09-11T13:12:44.886Z,28.81
2018-09-11T13:15:14.425Z,29.04
2018-09-11T13:17:43.971Z,29.11
2018-09-11T13:20:13.590Z,28.93
2018-09-11T13:22:43.280Z,28.53
2018-09-11T13:25:13.256Z,28.03
2018-09-11T13:27:42.890Z,28.17
2018-09-11T13:30:12.524Z,28.29
2018-09-11T13:32:42.367Z,28.32
2018-09-11T13:35:12.138Z,28.39
2018-09-11T13:37:42.595Z,28.17
2018-09-11T13:40:12.213Z,28.07
2018-09-11T13:42:41.857Z,28.24
2018-09-11T13:45:11.723Z,28.11
2018-09-11T13:47:41.358Z,28.21
2018-09-11T13:50:10.988Z,27.98
2018-09-11T13:52:41.015Z,27.99
2018-09-11T13:55:10.897Z,27.83
2018-09-11T13:57:40.549Z,27.92
2018-09-11T14:00:10.254Z,27.83
2018-09-11T14:02:40.327Z,27.95
2018-09-11T14:05:10.365Z,28.25
2018-09-11T14:07:40.406Z,28.40
2018-09-11T14:10:10.438Z,28.39
2018-09-11T14:12:40.294Z,28.37
2018-09-11T14:15:09.962Z,28.41
2018-09-11T14:17:39.980Z,28.27
2018-09-11T14:20:09.606Z,28.03
2018-09-11T14:22:39.317Z,27.82
2018-09-11T14:25:08.895Z,27.78
2018-09-11T14:27:38.657Z,27.77
2018-09-11T14:30:08.511Z,27.68
2018-09-11T14:32:38.220Z,27.80
2018-09-11T14:35:08.106Z,27.78
2018-09-11T14:37:37.568Z,27.65
2018-09-11T14:40:07.417Z,27.48
2018-09-11T14:42:36.848Z,27.44
2018-09-11T14:45:06.603Z,27.27
2018-09-11T14:47:41.177Z,27.14
2018-09-11T14:50:11.587Z,27.07
2018-09-11T14:52:41.184Z,27.02
2018-09-11T14:55:11.107Z,27.02
2018-09-11T14:57:40.946Z,26.98
2018-09-11T15:00:10.709Z,27.00
2018-09-11T15:02:40.312Z,27.06
2018-09-11T15:05:09.834Z,27.09
2018-09-11T15:07:39.697Z,27.21
2018-09-11T15:10:09.426Z,27.28
2018-09-11T15:12:38.860Z,27.22
2018-09-11T15:15:08.996Z,27.24
2018-09-11T15:17:38.481Z,27.14
2018-09-11T15:20:08.232Z,27.16
2018-09-11T15:22:38.880Z,27.36
2018-09-11T15:25:08.393Z,27.30
2018-09-11T15:27:37.857Z,27.14
2018-09-11T15:30:07.599Z,27.05
2018-09-11T15:32:37.273Z,27.04
2018-09-11T15:35:07.147Z,27.11
2018-09-11T15:37:36.789Z,26.86
2018-09-11T15:40:06.761Z,26.74
2018-09-11T15:42:36.342Z,26.52
2018-09-11T15:45:06.058Z,26.53
2018-09-11T15:47:35.892Z,26.48
2018-09-11T15:50:05.575Z,26.50
2018-09-11T15:52:35.232Z,26.30
2018-09-11T15:55:04.821Z,26.34
2018-09-11T15:57:34.403Z,26.20
2018-09-11T16:00:04.198Z,26.18
2018-09-11T16:02:33.799Z,26.02
2018-09-11T16:05:03.601Z,26.00
2018-09-11T16:07:33.240Z,25.88
2018-09-11T16:10:02.781Z,25.83
2018-09-11T16:12:32.145Z,25.81
2018-09-11T16:15:01.837Z,25.80
2018-09-11T16:17:31.464Z,25.67
2018-09-11T16:20:00.974Z,25.60
2018-09-11T16:22:30.538Z,25.52
2018-09-11T16:25:00.824Z,25.38
2018-09-11T16:27:30.390Z,25.25
2018-09-11T16:29:59.880Z,25.21
2018-09-11T16:32:29.625Z,25.09
2018-09-11T16:34:59.123Z,25.01
2018-09-11T16:37:28.600Z,24.81
2018-09-11T16:39:58.190Z,24.69
2018-09-11T16:42:27.703Z,24.63
2018-09-11T16:44:57.340Z,24.70
2018-09-11T16:47:27.058Z,24.65
2018-09-11T16:49:56.515Z,24.51
2018-09-11T16:52:26.076Z,24.42
2018-09-11T16:54:55.650Z,24.18
2018-09-11T16:57:25.274Z,24.07
2018-09-11T16:59:54.737Z,23.94
2018-09-11T17:02:24.357Z,23.83
2018-09-11T17:04:53.851Z,23.72
2018-09-11T17:07:24.082Z,23.64
2018-09-11T17:09:53.711Z,23.61
2018-09-11T17:12:23.142Z,23.64
2018-09-11T17:14:52.690Z,23.53
2018-09-11T17:17:22.263Z,23.42
2018-09-11T17:19:51.788Z,23.34
2018-09-11T17:22:21.442Z,23.17
2018-09-11T17:24:50.922Z,23.06
2018-09-11T17:27:20.485Z,22.93
2018-09-11T17:29:50.038Z,22.83
2018-09-11T17:32:19.990Z,22.80
2018-09-11T17:34:49.400Z,22.69
2018-09-11T17:37:19.057Z,22.70
2018-09-11T17:39:48.800Z,22.64
2018-09-11T17:42:18.398Z,22.57
2018-09-11T17:44:47.890Z,22.55
2018-09-11T17:47:17.573Z,22.42
2018-09-11T17:49:47.224Z,22.40
2018-09-11T17:52:16.807Z,22.36
2018-09-11T17:54:46.430Z,22.43
2018-09-11T17:57:15.934Z,22.38
2018-09-11T17:59:45.631Z,22.44
2018-09-11T18:02:15.184Z,22.21
2018-09-11T18:04:44.636Z,22.04
2018-09-11T18:07:14.355Z,22.14
2018-09-11T18:09:44.012Z,22.08
2018-09-11T18:12:13.641Z,22.07
2018-09-11T18:14:43.305Z,21.98
2018-09-11T18:17:12.992Z,21.86
2018-09-11T18:19:42.493Z,21.87
2018-09-11T18:22:11.991Z,21.85
2018-09-11T18:24:41.772Z,21.79
2018-09-11T18:27:11.652Z,21.75
2018-09-11T18:29:41.163Z,21.75
2018-09-11T18:32:10.949Z,21.83
2018-09-11T18:34:40.720Z,21.79
2018-09-11T18:37:10.370Z,21.80
2018-09-11T18:39:40.027Z,21.87
2018-09-11T18:42:09.676Z,21.78
2018-09-11T18:44:39.340Z,21.90
2018-09-11T18:47:08.859Z,21.87
2018-09-11T18:49:38.489Z,21.86
2018-09-11T18:52:08.213Z,21.86
2018-09-11T18:54:37.902Z,21.83
2018-09-11T18:57:07.605Z,21.86
2018-09-11T18:59:37.234Z,21.78
2018-09-11T19:02:06.894Z,21.77
2018-09-11T19:04:36.776Z,21.83
2018-09-11T19:07:06.556Z,21.78
2018-09-11T19:09:36.019Z,21.83
2018-09-11T19:12:05.997Z,21.80
2018-09-11T19:14:35.487Z,21.83
2018-09-11T19:17:06.148Z,21.78
2018-09-11T19:19:35.634Z,21.77
2018-09-11T19:22:05.379Z,21.83
2018-09-11T19:24:34.990Z,21.79
2018-09-11T19:27:04.635Z,21.78
2018-09-11T19:29:34.145Z,21.73
2018-09-11T19:32:03.891Z,21.70
2018-09-11T19:34:33.670Z,21.68
2018-09-11T19:37:03.343Z,21.66
2018-09-11T19:39:32.943Z,21.68
2018-09-11T19:42:02.682Z,21.66
2018-09-11T19:44:32.402Z,21.67
2018-09-11T19:47:01.854Z,21.63
2018-09-11T19:49:31.440Z,21.60
2018-09-11T19:52:01.927Z,21.61
2018-09-11T19:54:31.640Z,21.59
2018-09-11T19:57:01.183Z,21.44
2018-09-11T19:59:30.835Z,21.48
2018-09-11T20:02:00.331Z,21.65
2018-09-11T20:04:29.937Z,21.74
2018-09-11T20:06:59.447Z,21.72
2018-09-11T20:09:29.177Z,21.73
2018-09-11T20:11:58.886Z,21.70
2018-09-11T20:14:28.379Z,21.70
2018-09-11T20:16:57.977Z,21.66
2018-09-11T20:19:27.481Z,21.66
2018-09-11T20:21:57.216Z,21.64
2018-09-11T20:24:26.665Z,21.64
2018-09-11T20:26:56.196Z,21.71
2018-09-11T20:29:25.839Z,21.82
2018-09-11T20:31:55.491Z,21.78
2018-09-11T20:34:24.937Z,21.79
2018-09-11T20:36:54.344Z,21.93
2018-09-11T20:39:23.993Z,21.93
2018-09-11T20:41:53.592Z,21.90
2018-09-11T20:44:23.293Z,21.94
2018-09-11T20:46:52.787Z,21.84
2018-09-11T20:49:22.174Z,22.03
2018-09-11T20:51:52.041Z,22.01
2018-09-11T20:54:21.688Z,21.95
2018-09-11T20:56:51.845Z,21.93
2018-09-11T20:59:21.452Z,21.81
2018-09-11T21:01:51.170Z,21.70
2018-09-11T21:04:20.829Z,21.66
2018-09-11T21:06:50.391Z,21.63
2018-09-11T21:09:19.954Z,21.54
2018-09-11T21:11:49.716Z,21.51
2018-09-11T21:14:19.239Z,21.44
2018-09-11T21:16:48.785Z,21.44
2018-09-11T21:19:18.249Z,21.43
2018-09-11T21:21:47.868Z,21.34
2018-09-11T21:24:17.336Z,21.32
2018-09-11T21:26:47.057Z,21.31
2018-09-11T21:29:16.582Z,21.22
2018-09-11T21:31:46.235Z,21.17
2018-09-11T21:34:16.002Z,20.95
2018-09-11T21:36:45.453Z,20.82
2018-09-11T21:39:15.568Z,20.62
2018-09-11T21:41:45.015Z,20.47
2018-09-11T21:44:14.547Z,20.42
2018-09-11T21:46:44.182Z,20.39
2018-09-11T21:49:13.928Z,20.30
2018-09-11T21:51:43.347Z,20.34
2018-09-11T21:54:12.974Z,20.27
2018-09-11T21:56:42.473Z,20.18
2018-09-11T21:59:12.829Z,20.12
2018-09-11T22:01:49.370Z,20.04
2018-09-11T22:04:18.838Z,19.91
2018-09-11T22:06:48.499Z,19.84
2018-09-11T22:09:18.120Z,19.64
2018-09-11T22:11:47.477Z,18.98
2018-09-11T22:14:17.090Z,19.40
2018-09-11T22:16:46.666Z,19.43
2018-09-11T22:19:16.377Z,19.41
2018-09-11T22:21:46.312Z,19.42
2018-09-11T22:24:15.888Z,19.32
2018-09-11T22:26:45.354Z,19.20
2018-09-11T22:29:14.897Z,19.03
2018-09-11T22:31:44.353Z,19.05
2018-09-11T22:34:13.766Z,19.08
2018-09-11T22:36:43.346Z,19.01
2018-09-11T22:39:12.921Z,18.97
2018-09-11T22:41:42.454Z,18.91
2018-09-11T22:44:12.426Z,18.73
2018-09-11T22:46:42.040Z,18.75
2018-09-11T22:49:11.564Z,18.56
2018-09-11T22:51:41.143Z,18.51
2018-09-11T22:54:10.705Z,18.39
2018-09-11T22:56:40.061Z,18.29
2018-09-11T22:59:09.690Z,18.26
2018-09-11T23:01:39.220Z,18.27
2018-09-11T23:04:09.141Z,18.19
2018-09-11T23:06:38.789Z,18.23
2018-09-11T23:09:09.963Z,18.22
2018-09-11T23:11:39.748Z,18.21
2018-09-11T23:14:09.304Z,18.15
2018-09-11T23:16:38.718Z,18.19
2018-09-11T23:19:08.404Z,18.20
2018-09-11T23:21:38.825Z,18.23
2018-09-11T23:24:08.414Z,18.28
2018-09-11T23:26:38.038Z,18.35
2018-09-11T23:29:07.559Z,18.38
2018-09-11T23:31:37.036Z,18.42
2018-09-11T23:34:06.786Z,18.38
2018-09-11T23:36:36.226Z,18.39
2018-09-11T23:39:07.326Z,18.37
2018-09-11T23:41:37.093Z,18.30
2018-09-11T23:44:06.714Z,18.18
2018-09-11T23:46:36.290Z,17.91
2018-09-11T23:49:05.913Z,17.74
2018-09-11T23:51:35.418Z,17.76
2018-09-11T23:54:04.980Z,17.77
2018-09-11T23:56:35.202Z,17.80
2018-09-11T23:59:04.964Z,17.83
